sensor_id;sensor_type;location;lat;lon;timestamp;P1;durP1;ratioP1;P2;durP2;ratioP2
41263;SDS011;26998;48.714;9.414;2023-04-24T00:01:32;3.33;;;1.40;;
41263;SDS011;26998;48.714;9.414;2023-04-24T00:03:59;1.60;;;1.00;;
41263;SDS011;26998;48.714;9.414;2023-04-24T00:06:26;1.38;;;1.20;;
41263;SDS011;26998;48.714;9.414;2023-04-24T00:08:52;1.65;;;1.08;;
41263;SDS011;26998;48.714;9.414;2023-04-24T00:11:19;4.13;;;1.42;;
41263;SDS011;26998;48.714;9.414;2023-04-24T00:13:45;1.60;;;1.10;;
41263;SDS011;26998;48.714;9.414;2023-04-24T00:16:12;1.52;;;0.93;;
41263;SDS011;26998;48.714;9.414;2023-04-24T00:18:38;0.70;;;0.70;;
41263;SDS011;26998;48.714;9.414;2023-04-24T00:21:05;1.55;;;0.90;;
41263;SDS011;26998;48.714;9.414;2023-04-24T00:23:32;1.98;;;1.10;;
41263;SDS011;26998;48.714;9.414;2023-04-24T00:25:58;2.80;;;1.10;;
41263;SDS011;26998;48.714;9.414;2023-04-24T00:28:25;2.50;;;1.15;;
41263;SDS011;26998;48.714;9.414;2023-04-24T00:30:53;3.10;;;1.05;;
41263;SDS011;26998;48.714;9.414;2023-04-24T00:33:19;4.22;;;1.67;;
41263;SDS011;26998;48.714;9.414;2023-04-24T00:35:46;2.55;;;1.80;;
41263;SDS011;26998;48.714;9.414;2023-04-24T00:38:13;3.30;;;1.33;;
41263;SDS011;26998;48.714;9.414;2023-04-24T00:40:39;3.50;;;1.80;;
41263;SDS011;26998;48.714;9.414;2023-04-24T00:43:06;3.47;;;1.58;;
41263;SDS011;26998;48.714;9.414;2023-04-24T00:45:35;5.03;;;1.60;;
41263;SDS011;26998;48.714;9.414;2023-04-24T00:48:02;3.40;;;1.40;;
41263;SDS011;26998;48.714;9.414;2023-04-24T00:50:28;3.03;;;1.60;;
41263;SDS011;26998;48.714;9.414;2023-04-24T00:52:55;3.58;;;2.13;;
41263;SDS011;26998;48.714;9.414;2023-04-24T00:55:22;2.35;;;1.52;;
41263;SDS011;26998;48.714;9.414;2023-04-24T00:57:49;5.10;;;1.83;;
41263;SDS011;26998;48.714;9.414;2023-04-24T01:00:16;5.07;;;1.52;;
41263;SDS011;26998;48.714;9.414;2023-04-24T01:02:44;4.20;;;1.45;;
41263;SDS011;26998;48.714;9.414;2023-04-24T01:05:11;5.38;;;2.13;;
41263;SDS011;26998;48.714;9.414;2023-04-24T01:07:39;2.45;;;1.65;;
41263;SDS011;26998;48.714;9.414;2023-04-24T01:10:07;2.50;;;1.60;;
41263;SDS011;26998;48.714;9.414;2023-04-24T01:12:34;2.30;;;1.33;;
41263;SDS011;26998;48.714;9.414;2023-04-24T01:15:01;1.58;;;0.93;;
41263;SDS011;26998;48.714;9.414;2023-04-24T01:17:28;4.07;;;1.10;;
41263;SDS011;26998;48.714;9.414;2023-04-24T01:19:55;2.63;;;1.20;;
41263;SDS011;26998;48.714;9.414;2023-04-24T01:22:22;0.95;;;0.80;;
41263;SDS011;26998;48.714;9.414;2023-04-24T01:24:48;1.58;;;1.02;;
41263;SDS011;26998;48.714;9.414;2023-04-24T01:27:15;0.93;;;0.70;;
41263;SDS011;26998;48.714;9.414;2023-04-24T01:29:41;1.88;;;0.80;;
41263;SDS011;26998;48.714;9.414;2023-04-24T01:32:08;0.98;;;0.80;;
41263;SDS011;26998;48.714;9.414;2023-04-24T01:34:35;1.92;;;0.80;;
41263;SDS011;26998;48.714;9.414;2023-04-24T01:37:03;2.83;;;1.00;;
41263;SDS011;26998;48.714;9.414;2023-04-24T01:39:31;3.00;;;1.00;;
41263;SDS011;26998;48.714;9.414;2023-04-24T01:41:58;1.58;;;1.10;;
41263;SDS011;26998;48.714;9.414;2023-04-24T01:44:24;0.80;;;0.80;;
41263;SDS011;26998;48.714;9.414;2023-04-24T01:46:51;2.30;;;1.08;;
41263;SDS011;26998;48.714;9.414;2023-04-24T01:49:18;1.17;;;1.00;;
41263;SDS011;26998;48.714;9.414;2023-04-24T01:51:45;2.25;;;1.08;;
41263;SDS011;26998;48.714;9.414;2023-04-24T01:54:11;3.05;;;1.27;;
41263;SDS011;26998;48.714;9.414;2023-04-24T01:56:42;1.88;;;1.13;;
41263;SDS011;26998;48.714;9.414;2023-04-24T01:59:12;2.60;;;1.15;;
41263;SDS011;26998;48.714;9.414;2023-04-24T02:01:39;4.20;;;1.40;;
41263;SDS011;26998;48.714;9.414;2023-04-24T02:04:06;1.95;;;1.15;;
41263;SDS011;26998;48.714;9.414;2023-04-24T02:06:34;3.13;;;1.52;;
41263;SDS011;26998;48.714;9.414;2023-04-24T02:09:01;1.65;;;1.08;;
41263;SDS011;26998;48.714;9.414;2023-04-24T02:11:28;4.32;;;1.30;;
41263;SDS011;26998;48.714;9.414;2023-04-24T02:13:55;4.03;;;1.40;;
41263;SDS011;26998;48.714;9.414;2023-04-24T02:16:21;2.90;;;1.10;;
41263;SDS011;26998;48.714;9.414;2023-04-24T02:18:48;2.08;;;1.25;;
41263;SDS011;26998;48.714;9.414;2023-04-24T02:21:15;2.70;;;1.10;;
41263;SDS011;26998;48.714;9.414;2023-04-24T02:23:41;1.10;;;1.00;;
41263;SDS011;26998;48.714;9.414;2023-04-24T02:26:08;5.65;;;1.23;;
41263;SDS011;26998;48.714;9.414;2023-04-24T02:28:34;3.65;;;1.05;;
41263;SDS011;26998;48.714;9.414;2023-04-24T02:31:01;1.50;;;1.17;;
41263;SDS011;26998;48.714;9.414;2023-04-24T02:33:28;1.63;;;1.35;;
41263;SDS011;26998;48.714;9.414;2023-04-24T02:35:54;5.47;;;2.00;;
41263;SDS011;26998;48.714;9.414;2023-04-24T02:38:21;4.22;;;3.03;;
41263;SDS011;26998;48.714;9.414;2023-04-24T02:40:48;4.50;;;1.75;;
41263;SDS011;26998;48.714;9.414;2023-04-24T02:43:15;4.22;;;1.35;;
41263;SDS011;26998;48.714;9.414;2023-04-24T02:45:41;1.58;;;1.40;;
41263;SDS011;26998;48.714;9.414;2023-04-24T02:48:08;1.50;;;1.25;;
41263;SDS011;26998;48.714;9.414;2023-04-24T02:50:34;1.30;;;1.20;;
41263;SDS011;26998;48.714;9.414;2023-04-24T02:53:01;1.80;;;1.10;;
41263;SDS011;26998;48.714;9.414;2023-04-24T02:55:27;2.90;;;1.30;;
41263;SDS011;26998;48.714;9.414;2023-04-24T02:57:54;2.47;;;0.90;;
41263;SDS011;26998;48.714;9.414;2023-04-24T03:00:20;2.05;;;1.20;;
41263;SDS011;26998;48.714;9.414;2023-04-24T03:02:47;1.15;;;0.80;;
41263;SDS011;26998;48.714;9.414;2023-04-24T03:05:14;1.55;;;0.80;;
41263;SDS011;26998;48.714;9.414;2023-04-24T03:07:41;2.55;;;1.27;;
41263;SDS011;26998;48.714;9.414;2023-04-24T03:10:07;1.75;;;0.88;;
41263;SDS011;26998;48.714;9.414;2023-04-24T03:12:34;0.95;;;0.88;;
41263;SDS011;26998;48.714;9.414;2023-04-24T03:15:01;3.50;;;0.85;;
41263;SDS011;26998;48.714;9.414;2023-04-24T03:17:28;1.25;;;1.08;;
41263;SDS011;26998;48.714;9.414;2023-04-24T03:19:54;1.70;;;1.02;;
41263;SDS011;26998;48.714;9.414;2023-04-24T03:22:21;1.13;;;0.98;;
41263;SDS011;26998;48.714;9.414;2023-04-24T03:24:49;2.05;;;1.13;;
41263;SDS011;26998;48.714;9.414;2023-04-24T03:27:16;2.50;;;1.20;;
41263;SDS011;26998;48.714;9.414;2023-04-24T03:29:42;2.72;;;1.50;;
41263;SDS011;26998;48.714;9.414;2023-04-24T03:32:09;2.97;;;1.40;;
41263;SDS011;26998;48.714;9.414;2023-04-24T03:34:36;2.83;;;1.27;;
41263;SDS011;26998;48.714;9.414;2023-04-24T03:37:02;2.97;;;1.30;;
41263;SDS011;26998;48.714;9.414;2023-04-24T03:39:30;2.15;;;1.13;;
41263;SDS011;26998;48.714;9.414;2023-04-24T03:41:56;1.20;;;1.10;;
41263;SDS011;26998;48.714;9.414;2023-04-24T03:44:23;1.88;;;1.05;;
41263;SDS011;26998;48.714;9.414;2023-04-24T03:46:49;2.35;;;0.90;;
41263;SDS011;26998;48.714;9.414;2023-04-24T03:49:16;4.93;;;1.42;;
41263;SDS011;26998;48.714;9.414;2023-04-24T03:51:42;1.65;;;0.85;;
41263;SDS011;26998;48.714;9.414;2023-04-24T03:54:09;1.15;;;0.82;;
41263;SDS011;26998;48.714;9.414;2023-04-24T03:56:35;1.88;;;1.20;;
41263;SDS011;26998;48.714;9.414;2023-04-24T03:59:02;1.20;;;1.10;;
41263;SDS011;26998;48.714;9.414;2023-04-24T04:01:28;1.30;;;1.20;;
41263;SDS011;26998;48.714;9.414;2023-04-24T04:03:55;2.58;;;0.77;;
41263;SDS011;26998;48.714;9.414;2023-04-24T04:06:21;1.02;;;0.90;;
41263;SDS011;26998;48.714;9.414;2023-04-24T04:08:48;2.50;;;1.00;;
41263;SDS011;26998;48.714;9.414;2023-04-24T04:11:14;2.30;;;1.30;;
41263;SDS011;26998;48.714;9.414;2023-04-24T04:13:41;4.22;;;1.40;;
41263;SDS011;26998;48.714;9.414;2023-04-24T04:16:08;2.80;;;1.10;;
41263;SDS011;26998;48.714;9.414;2023-04-24T04:18:35;1.23;;;0.93;;
41263;SDS011;26998;48.714;9.414;2023-04-24T04:21:01;3.70;;;1.13;;
41263;SDS011;26998;48.714;9.414;2023-04-24T04:23:28;2.55;;;1.15;;
41263;SDS011;26998;48.714;9.414;2023-04-24T04:25:54;3.33;;;1.20;;
41263;SDS011;26998;48.714;9.414;2023-04-24T04:28:21;2.80;;;1.60;;
41263;SDS011;26998;48.714;9.414;2023-04-24T04:30:47;2.05;;;1.35;;
41263;SDS011;26998;48.714;9.414;2023-04-24T04:33:14;3.55;;;1.30;;
41263;SDS011;26998;48.714;9.414;2023-04-24T04:35:41;2.75;;;1.10;;
41263;SDS011;26998;48.714;9.414;2023-04-24T04:38:07;1.80;;;1.20;;
41263;SDS011;26998;48.714;9.414;2023-04-24T04:40:34;2.03;;;1.33;;
41263;SDS011;26998;48.714;9.414;2023-04-24T04:43:00;4.78;;;1.20;;
41263;SDS011;26998;48.714;9.414;2023-04-24T04:45:27;2.58;;;1.30;;
41263;SDS011;26998;48.714;9.414;2023-04-24T04:47:54;3.35;;;1.20;;
41263;SDS011;26998;48.714;9.414;2023-04-24T04:50:21;2.13;;;1.20;;
41263;SDS011;26998;48.714;9.414;2023-04-24T04:52:47;2.25;;;1.23;;
41263;SDS011;26998;48.714;9.414;2023-04-24T04:55:14;3.75;;;1.50;;
41263;SDS011;26998;48.714;9.414;2023-04-24T04:57:41;6.88;;;2.10;;
41263;SDS011;26998;48.714;9.414;2023-04-24T05:00:09;4.45;;;1.38;;
41263;SDS011;26998;48.714;9.414;2023-04-24T05:02:36;5.82;;;1.45;;
41263;SDS011;26998;48.714;9.414;2023-04-24T05:05:03;2.38;;;1.60;;
41263;SDS011;26998;48.714;9.414;2023-04-24T05:07:30;2.03;;;1.80;;
41263;SDS011;26998;48.714;9.414;2023-04-24T05:09:57;2.92;;;1.67;;
41263;SDS011;26998;48.714;9.414;2023-04-24T05:12:23;3.72;;;1.77;;
41263;SDS011;26998;48.714;9.414;2023-04-24T05:14:49;2.42;;;2.22;;
41263;SDS011;26998;48.714;9.414;2023-04-24T05:17:16;6.40;;;3.40;;
41263;SDS011;26998;48.714;9.414;2023-04-24T05:19:43;3.70;;;2.53;;
41263;SDS011;26998;48.714;9.414;2023-04-24T05:22:10;5.68;;;2.50;;
41263;SDS011;26998;48.714;9.414;2023-04-24T05:24:37;5.45;;;2.88;;
41263;SDS011;26998;48.714;9.414;2023-04-24T05:27:04;4.80;;;3.50;;
41263;SDS011;26998;48.714;9.414;2023-04-24T05:29:31;6.05;;;4.70;;
41263;SDS011;26998;48.714;9.414;2023-04-24T05:31:58;4.80;;;3.80;;
41263;SDS011;26998;48.714;9.414;2023-04-24T05:34:24;4.10;;;3.25;;
41263;SDS011;26998;48.714;9.414;2023-04-24T05:36:51;4.43;;;2.90;;
41263;SDS011;26998;48.714;9.414;2023-04-24T05:39:17;2.08;;;1.90;;
41263;SDS011;26998;48.714;9.414;2023-04-24T05:41:44;5.30;;;2.83;;
41263;SDS011;26998;48.714;9.414;2023-04-24T05:44:11;4.95;;;3.67;;
41263;SDS011;26998;48.714;9.414;2023-04-24T05:46:37;8.50;;;3.28;;
41263;SDS011;26998;48.714;9.414;2023-04-24T05:49:03;5.22;;;2.67;;
41263;SDS011;26998;48.714;9.414;2023-04-24T05:51:30;4.10;;;2.67;;
41263;SDS011;26998;48.714;9.414;2023-04-24T05:53:57;4.32;;;2.45;;
41263;SDS011;26998;48.714;9.414;2023-04-24T05:56:25;5.38;;;2.70;;
41263;SDS011;26998;48.714;9.414;2023-04-24T05:58:53;6.18;;;3.67;;
41263;SDS011;26998;48.714;9.414;2023-04-24T06:01:20;66.38;;;26.70;;
41263;SDS011;26998;48.714;9.414;2023-04-24T06:03:48;27.27;;;12.15;;
41263;SDS011;26998;48.714;9.414;2023-04-24T06:06:15;23.98;;;10.30;;
41263;SDS011;26998;48.714;9.414;2023-04-24T06:08:43;15.63;;;6.82;;
41263;SDS011;26998;48.714;9.414;2023-04-24T06:11:09;10.02;;;5.55;;
41263;SDS011;26998;48.714;9.414;2023-04-24T06:13:38;7.13;;;5.18;;
41263;SDS011;26998;48.714;9.414;2023-04-24T06:16:04;9.38;;;4.32;;
41263;SDS011;26998;48.714;9.414;2023-04-24T06:18:31;6.78;;;3.83;;
41263;SDS011;26998;48.714;9.414;2023-04-24T06:20:58;8.02;;;3.83;;
41263;SDS011;26998;48.714;9.414;2023-04-24T06:23:24;5.78;;;3.70;;
41263;SDS011;26998;48.714;9.414;2023-04-24T06:25:51;5.88;;;4.20;;
41263;SDS011;26998;48.714;9.414;2023-04-24T06:28:20;5.55;;;3.67;;
41263;SDS011;26998;48.714;9.414;2023-04-24T06:30:46;4.70;;;3.58;;
41263;SDS011;26998;48.714;9.414;2023-04-24T06:33:13;6.63;;;4.55;;
41263;SDS011;26998;48.714;9.414;2023-04-24T06:35:44;10.05;;;4.70;;
41263;SDS011;26998;48.714;9.414;2023-04-24T06:38:10;9.50;;;5.18;;
41263;SDS011;26998;48.714;9.414;2023-04-24T06:40:37;4.78;;;4.28;;
41263;SDS011;26998;48.714;9.414;2023-04-24T06:43:04;7.07;;;4.07;;
41263;SDS011;26998;48.714;9.414;2023-04-24T06:45:31;6.97;;;2.53;;
41263;SDS011;26998;48.714;9.414;2023-04-24T06:47:57;2.30;;;1.83;;
41263;SDS011;26998;48.714;9.414;2023-04-24T06:50:24;2.10;;;1.90;;
41263;SDS011;26998;48.714;9.414;2023-04-24T06:52:51;2.67;;;2.10;;
41263;SDS011;26998;48.714;9.414;2023-04-24T06:55:17;2.55;;;2.35;;
41263;SDS011;26998;48.714;9.414;2023-04-24T06:57:44;2.42;;;1.88;;
41263;SDS011;26998;48.714;9.414;2023-04-24T07:00:10;4.55;;;1.90;;
41263;SDS011;26998;48.714;9.414;2023-04-24T07:02:38;5.07;;;1.92;;
41263;SDS011;26998;48.714;9.414;2023-04-24T07:05:06;1.77;;;1.60;;
41263;SDS011;26998;48.714;9.414;2023-04-24T07:07:33;3.88;;;1.70;;
41263;SDS011;26998;48.714;9.414;2023-04-24T07:10:00;1.95;;;1.55;;
41263;SDS011;26998;48.714;9.414;2023-04-24T07:12:29;3.30;;;1.50;;
41263;SDS011;26998;48.714;9.414;2023-04-24T07:14:56;1.98;;;1.42;;
41263;SDS011;26998;48.714;9.414;2023-04-24T07:17:22;4.18;;;1.65;;
41263;SDS011;26998;48.714;9.414;2023-04-24T07:19:49;1.85;;;1.75;;
41263;SDS011;26998;48.714;9.414;2023-04-24T07:22:15;4.35;;;1.70;;
41263;SDS011;26998;48.714;9.414;2023-04-24T07:24:43;3.35;;;1.50;;
41263;SDS011;26998;48.714;9.414;2023-04-24T07:27:12;2.22;;;1.70;;
41263;SDS011;26998;48.714;9.414;2023-04-24T07:29:38;2.75;;;1.75;;
41263;SDS011;26998;48.714;9.414;2023-04-24T07:32:05;2.50;;;1.90;;
41263;SDS011;26998;48.714;9.414;2023-04-24T07:34:32;3.22;;;1.73;;
41263;SDS011;26998;48.714;9.414;2023-04-24T07:37:00;4.97;;;2.00;;
41263;SDS011;26998;48.714;9.414;2023-04-24T07:39:27;3.03;;;1.98;;
41263;SDS011;26998;48.714;9.414;2023-04-24T07:41:54;2.35;;;2.03;;
41263;SDS011;26998;48.714;9.414;2023-04-24T07:44:21;2.45;;;2.30;;
41263;SDS011;26998;48.714;9.414;2023-04-24T07:46:47;3.67;;;2.40;;
41263;SDS011;26998;48.714;9.414;2023-04-24T07:49:14;3.55;;;2.00;;
41263;SDS011;26998;48.714;9.414;2023-04-24T07:51:44;2.83;;;1.93;;
41263;SDS011;26998;48.714;9.414;2023-04-24T07:54:11;3.08;;;2.15;;
41263;SDS011;26998;48.714;9.414;2023-04-24T07:56:38;4.72;;;2.20;;
41263;SDS011;26998;48.714;9.414;2023-04-24T07:59:05;5.03;;;1.85;;
41263;SDS011;26998;48.714;9.414;2023-04-24T08:01:31;3.75;;;1.80;;
41263;SDS011;26998;48.714;9.414;2023-04-24T08:03:58;3.58;;;2.05;;
41263;SDS011;26998;48.714;9.414;2023-04-24T08:06:25;4.25;;;2.53;;
41263;SDS011;26998;48.714;9.414;2023-04-24T08:08:51;2.20;;;2.00;;
41263;SDS011;26998;48.714;9.414;2023-04-24T08:11:18;5.05;;;3.60;;
41263;SDS011;26998;48.714;9.414;2023-04-24T08:13:44;2.50;;;2.03;;
41263;SDS011;26998;48.714;9.414;2023-04-24T08:16:11;1.85;;;1.50;;
41263;SDS011;26998;48.714;9.414;2023-04-24T08:18:38;1.52;;;1.17;;
41263;SDS011;26998;48.714;9.414;2023-04-24T08:21:05;1.40;;;1.10;;
41263;SDS011;26998;48.714;9.414;2023-04-24T08:23:31;3.40;;;1.70;;
41263;SDS011;26998;48.714;9.414;2023-04-24T08:25:58;2.08;;;1.45;;
41263;SDS011;26998;48.714;9.414;2023-04-24T08:28:25;4.32;;;2.20;;
41263;SDS011;26998;48.714;9.414;2023-04-24T08:30:51;2.70;;;1.52;;
41263;SDS011;26998;48.714;9.414;2023-04-24T08:33:17;2.00;;;1.50;;
41263;SDS011;26998;48.714;9.414;2023-04-24T08:35:44;3.47;;;2.67;;
41263;SDS011;26998;48.714;9.414;2023-04-24T08:38:10;3.97;;;2.20;;
41263;SDS011;26998;48.714;9.414;2023-04-24T08:40:37;2.03;;;1.55;;
41263;SDS011;26998;48.714;9.414;2023-04-24T08:43:04;2.28;;;2.08;;
41263;SDS011;26998;48.714;9.414;2023-04-24T08:45:30;1.73;;;1.63;;
41263;SDS011;26998;48.714;9.414;2023-04-24T08:47:59;2.38;;;1.95;;
41263;SDS011;26998;48.714;9.414;2023-04-24T08:50:26;4.25;;;2.80;;
41263;SDS011;26998;48.714;9.414;2023-04-24T08:52:53;3.45;;;1.90;;
41263;SDS011;26998;48.714;9.414;2023-04-24T08:55:19;3.08;;;2.00;;
41263;SDS011;26998;48.714;9.414;2023-04-24T08:57:50;3.10;;;1.80;;
41263;SDS011;26998;48.714;9.414;2023-04-24T09:00:19;4.13;;;2.10;;
41263;SDS011;26998;48.714;9.414;2023-04-24T09:02:47;3.05;;;1.70;;
41263;SDS011;26998;48.714;9.414;2023-04-24T09:05:17;2.00;;;1.80;;
41263;SDS011;26998;48.714;9.414;2023-04-24T09:07:54;3.47;;;2.33;;
41263;SDS011;26998;48.714;9.414;2023-04-24T09:10:25;2.03;;;1.73;;
41263;SDS011;26998;48.714;9.414;2023-04-24T09:12:52;5.30;;;2.75;;
41263;SDS011;26998;48.714;9.414;2023-04-24T09:15:20;2.38;;;1.60;;
41263;SDS011;26998;48.714;9.414;2023-04-24T09:17:48;2.65;;;1.50;;
41263;SDS011;26998;48.714;9.414;2023-04-24T09:20:15;3.60;;;1.55;;
41263;SDS011;26998;48.714;9.414;2023-04-24T09:22:42;3.03;;;1.70;;
41263;SDS011;26998;48.714;9.414;2023-04-24T09:25:10;5.07;;;1.65;;
41263;SDS011;26998;48.714;9.414;2023-04-24T09:27:41;7.30;;;2.08;;
41263;SDS011;26998;48.714;9.414;2023-04-24T09:30:10;2.72;;;1.70;;
41263;SDS011;26998;48.714;9.414;2023-04-24T09:32:37;4.13;;;1.98;;
41263;SDS011;26998;48.714;9.414;2023-04-24T09:35:11;3.33;;;2.10;;
41263;SDS011;26998;48.714;9.414;2023-04-24T09:37:42;10.68;;;2.67;;
41263;SDS011;26998;48.714;9.414;2023-04-24T09:40:14;3.65;;;1.80;;
41263;SDS011;26998;48.714;9.414;2023-04-24T09:45:21;3.00;;;1.63;;
41263;SDS011;26998;48.714;9.414;2023-04-24T09:47:51;2.47;;;1.20;;
41263;SDS011;26998;48.714;9.414;2023-04-24T09:50:18;2.30;;;1.45;;
41263;SDS011;26998;48.714;9.414;2023-04-24T09:52:57;1.63;;;1.20;;
41263;SDS011;26998;48.714;9.414;2023-04-24T09:55:27;2.83;;;1.27;;
41263;SDS011;26998;48.714;9.414;2023-04-24T09:58:00;4.43;;;1.90;;
41263;SDS011;26998;48.714;9.414;2023-04-24T10:00:28;1.40;;;1.10;;
41263;SDS011;26998;48.714;9.414;2023-04-24T10:03:00;3.38;;;1.10;;
41263;SDS011;26998;48.714;9.414;2023-04-24T10:05:49;5.57;;;1.30;;
41263;SDS011;26998;48.714;9.414;2023-04-24T10:08:20;1.90;;;1.15;;
41263;SDS011;26998;48.714;9.414;2023-04-24T10:10:47;3.45;;;1.48;;
41263;SDS011;26998;48.714;9.414;2023-04-24T10:13:14;2.63;;;1.67;;
41263;SDS011;26998;48.714;9.414;2023-04-24T10:15:41;2.92;;;1.10;;
41263;SDS011;26998;48.714;9.414;2023-04-24T10:18:08;1.73;;;0.95;;
41263;SDS011;26998;48.714;9.414;2023-04-24T10:20:37;1.88;;;1.00;;
41263;SDS011;26998;48.714;9.414;2023-04-24T10:23:05;2.97;;;1.13;;
41263;SDS011;26998;48.714;9.414;2023-04-24T10:25:33;1.33;;;0.90;;
41263;SDS011;26998;48.714;9.414;2023-04-24T10:28:01;2.63;;;1.10;;
41263;SDS011;26998;48.714;9.414;2023-04-24T10:30:32;5.57;;;1.02;;
41263;SDS011;26998;48.714;9.414;2023-04-24T10:33:01;2.83;;;1.10;;
41263;SDS011;26998;48.714;9.414;2023-04-24T10:35:38;2.25;;;1.30;;
41263;SDS011;26998;48.714;9.414;2023-04-24T10:38:09;2.30;;;1.08;;
41263;SDS011;26998;48.714;9.414;2023-04-24T10:40:38;3.63;;;1.05;;
41263;SDS011;26998;48.714;9.414;2023-04-24T10:43:05;2.20;;;1.00;;
41263;SDS011;26998;48.714;9.414;2023-04-24T10:45:33;2.13;;;1.10;;
41263;SDS011;26998;48.714;9.414;2023-04-24T10:48:07;3.33;;;1.30;;
41263;SDS011;26998;48.714;9.414;2023-04-24T10:50:42;1.98;;;1.20;;
41263;SDS011;26998;48.714;9.414;2023-04-24T10:53:16;4.68;;;1.02;;
41263;SDS011;26998;48.714;9.414;2023-04-24T10:55:51;2.60;;;1.00;;
41263;SDS011;26998;48.714;9.414;2023-04-24T10:58:39;4.18;;;1.88;;
41263;SDS011;26998;48.714;9.414;2023-04-24T11:01:07;6.43;;;1.90;;
41263;SDS011;26998;48.714;9.414;2023-04-24T11:03:34;4.72;;;1.95;;
41263;SDS011;26998;48.714;9.414;2023-04-24T11:08:36;3.30;;;1.30;;
41263;SDS011;26998;48.714;9.414;2023-04-24T11:16:26;2.42;;;1.30;;
41263;SDS011;26998;48.714;9.414;2023-04-24T11:19:02;4.03;;;1.10;;
41263;SDS011;26998;48.714;9.414;2023-04-24T11:27:14;2.80;;;1.17;;
41263;SDS011;26998;48.714;9.414;2023-04-24T11:32:25;2.28;;;1.23;;
41263;SDS011;26998;48.714;9.414;2023-04-24T11:35:15;1.73;;;0.82;;
41263;SDS011;26998;48.714;9.414;2023-04-24T11:37:44;2.67;;;1.52;;
41263;SDS011;26998;48.714;9.414;2023-04-24T11:40:23;2.22;;;1.27;;
41263;SDS011;26998;48.714;9.414;2023-04-24T11:42:51;2.55;;;1.45;;
41263;SDS011;26998;48.714;9.414;2023-04-24T11:45:22;3.53;;;1.60;;
41263;SDS011;26998;48.714;9.414;2023-04-24T11:47:50;3.22;;;1.27;;
41263;SDS011;26998;48.714;9.414;2023-04-24T11:50:18;2.42;;;1.30;;
41263;SDS011;26998;48.714;9.414;2023-04-24T11:52:46;4.35;;;1.40;;
41263;SDS011;26998;48.714;9.414;2023-04-24T11:57:44;2.47;;;1.20;;
41263;SDS011;26998;48.714;9.414;2023-04-24T12:00:22;8.80;;;2.53;;
41263;SDS011;26998;48.714;9.414;2023-04-24T12:03:10;4.43;;;1.80;;
41263;SDS011;26998;48.714;9.414;2023-04-24T12:05:38;4.03;;;1.58;;
41263;SDS011;26998;48.714;9.414;2023-04-24T12:08:06;8.10;;;1.65;;
41263;SDS011;26998;48.714;9.414;2023-04-24T12:10:33;2.58;;;1.65;;
41263;SDS011;26998;48.714;9.414;2023-04-24T12:13:00;4.05;;;1.40;;
41263;SDS011;26998;48.714;9.414;2023-04-24T12:15:27;2.60;;;1.30;;
41263;SDS011;26998;48.714;9.414;2023-04-24T12:17:54;3.50;;;1.58;;
41263;SDS011;26998;48.714;9.414;2023-04-24T12:20:26;6.70;;;2.47;;
41263;SDS011;26998;48.714;9.414;2023-04-24T12:22:54;8.10;;;1.90;;
41263;SDS011;26998;48.714;9.414;2023-04-24T12:25:26;3.40;;;1.52;;
41263;SDS011;26998;48.714;9.414;2023-04-24T12:30:38;2.47;;;1.25;;
41263;SDS011;26998;48.714;9.414;2023-04-24T12:33:20;3.75;;;2.13;;
41263;SDS011;26998;48.714;9.414;2023-04-24T12:35:48;8.20;;;2.47;;
41263;SDS011;26998;48.714;9.414;2023-04-24T12:38:21;3.38;;;1.30;;
41263;SDS011;26998;48.714;9.414;2023-04-24T12:41:00;6.47;;;2.75;;
41263;SDS011;26998;48.714;9.414;2023-04-24T12:43:29;6.03;;;2.42;;
41263;SDS011;26998;48.714;9.414;2023-04-24T12:45:56;10.73;;;3.35;;
41263;SDS011;26998;48.714;9.414;2023-04-24T12:48:23;2.22;;;1.20;;
41263;SDS011;26998;48.714;9.414;2023-04-24T12:50:49;1.45;;;1.27;;
41263;SDS011;26998;48.714;9.414;2023-04-24T12:53:16;1.40;;;1.30;;
41263;SDS011;26998;48.714;9.414;2023-04-24T12:55:43;3.40;;;1.90;;
41263;SDS011;26998;48.714;9.414;2023-04-24T12:58:10;2.42;;;1.10;;
41263;SDS011;26998;48.714;9.414;2023-04-24T13:00:38;3.38;;;1.90;;
41263;SDS011;26998;48.714;9.414;2023-04-24T13:03:05;2.90;;;1.65;;
41263;SDS011;26998;48.714;9.414;2023-04-24T13:05:31;5.07;;;2.40;;
41263;SDS011;26998;48.714;9.414;2023-04-24T13:07:58;3.60;;;1.60;;
41263;SDS011;26998;48.714;9.414;2023-04-24T13:10:25;1.38;;;1.27;;
41263;SDS011;26998;48.714;9.414;2023-04-24T13:12:52;1.17;;;0.85;;
41263;SDS011;26998;48.714;9.414;2023-04-24T13:15:19;2.28;;;1.58;;
41263;SDS011;26998;48.714;9.414;2023-04-24T13:17:46;3.85;;;1.40;;
41263;SDS011;26998;48.714;9.414;2023-04-24T13:20:12;2.67;;;1.80;;
41263;SDS011;26998;48.714;9.414;2023-04-24T13:22:39;1.27;;;1.17;;
41263;SDS011;26998;48.714;9.414;2023-04-24T13:25:06;4.72;;;1.58;;
41263;SDS011;26998;48.714;9.414;2023-04-24T13:27:33;4.80;;;1.60;;
41263;SDS011;26998;48.714;9.414;2023-04-24T13:30:00;1.73;;;1.20;;
41263;SDS011;26998;48.714;9.414;2023-04-24T13:32:26;1.40;;;1.30;;
41263;SDS011;26998;48.714;9.414;2023-04-24T13:34:54;2.53;;;1.50;;
41263;SDS011;26998;48.714;9.414;2023-04-24T13:37:21;6.45;;;1.27;;
41263;SDS011;26998;48.714;9.414;2023-04-24T13:39:47;5.13;;;1.92;;
41263;SDS011;26998;48.714;9.414;2023-04-24T13:42:14;2.42;;;1.88;;
41263;SDS011;26998;48.714;9.414;2023-04-24T13:44:41;4.10;;;1.77;;
41263;SDS011;26998;48.714;9.414;2023-04-24T13:47:08;2.05;;;1.77;;
41263;SDS011;26998;48.714;9.414;2023-04-24T13:49:34;2.78;;;1.63;;
41263;SDS011;26998;48.714;9.414;2023-04-24T13:52:02;1.70;;;1.60;;
41263;SDS011;26998;48.714;9.414;2023-04-24T13:54:29;2.90;;;1.58;;
41263;SDS011;26998;48.714;9.414;2023-04-24T13:56:57;2.85;;;1.95;;
41263;SDS011;26998;48.714;9.414;2023-04-24T13:59:24;4.35;;;2.67;;
41263;SDS011;26998;48.714;9.414;2023-04-24T14:01:51;3.67;;;2.10;;
41263;SDS011;26998;48.714;9.414;2023-04-24T14:04:17;6.15;;;2.33;;
41263;SDS011;26998;48.714;9.414;2023-04-24T14:06:44;3.67;;;1.88;;
41263;SDS011;26998;48.714;9.414;2023-04-24T14:09:11;3.30;;;1.83;;
41263;SDS011;26998;48.714;9.414;2023-04-24T14:11:38;1.70;;;1.40;;
41263;SDS011;26998;48.714;9.414;2023-04-24T14:14:04;4.03;;;1.95;;
41263;SDS011;26998;48.714;9.414;2023-04-24T14:16:31;4.25;;;2.13;;
41263;SDS011;26998;48.714;9.414;2023-04-24T14:18:58;3.53;;;1.88;;
41263;SDS011;26998;48.714;9.414;2023-04-24T14:21:24;1.67;;;1.58;;
41263;SDS011;26998;48.714;9.414;2023-04-24T14:23:51;4.30;;;1.95;;
41263;SDS011;26998;48.714;9.414;2023-04-24T14:26:18;4.32;;;1.48;;
41263;SDS011;26998;48.714;9.414;2023-04-24T14:28:46;5.47;;;2.38;;
41263;SDS011;26998;48.714;9.414;2023-04-24T14:31:12;3.42;;;1.88;;
41263;SDS011;26998;48.714;9.414;2023-04-24T14:33:39;3.63;;;1.95;;
41263;SDS011;26998;48.714;9.414;2023-04-24T14:36:06;1.92;;;1.63;;
41263;SDS011;26998;48.714;9.414;2023-04-24T14:38:33;1.70;;;1.60;;
41263;SDS011;26998;48.714;9.414;2023-04-24T14:41:00;6.43;;;1.77;;
41263;SDS011;26998;48.714;9.414;2023-04-24T14:43:30;2.05;;;1.67;;
41263;SDS011;26998;48.714;9.414;2023-04-24T14:45:57;5.43;;;1.85;;
41263;SDS011;26998;48.714;9.414;2023-04-24T14:48:23;2.67;;;2.05;;
41263;SDS011;26998;48.714;9.414;2023-04-24T14:50:51;3.10;;;2.00;;
41263;SDS011;26998;48.714;9.414;2023-04-24T14:53:17;1.52;;;1.42;;
41263;SDS011;26998;48.714;9.414;2023-04-24T14:55:44;3.92;;;1.70;;
41263;SDS011;26998;48.714;9.414;2023-04-24T14:58:10;3.58;;;2.15;;
41263;SDS011;26998;48.714;9.414;2023-04-24T15:00:37;4.22;;;2.00;;
41263;SDS011;26998;48.714;9.414;2023-04-24T15:03:03;3.03;;;2.13;;
41263;SDS011;26998;48.714;9.414;2023-04-24T15:05:31;2.65;;;2.00;;
41263;SDS011;26998;48.714;9.414;2023-04-24T15:07:58;1.73;;;1.58;;
41263;SDS011;26998;48.714;9.414;2023-04-24T15:10:25;2.00;;;1.70;;
41263;SDS011;26998;48.714;9.414;2023-04-24T15:12:51;3.50;;;1.65;;
41263;SDS011;26998;48.714;9.414;2023-04-24T15:15:18;3.70;;;2.05;;